sensor_id;sensor_type;location;lat;lon;timestamp;P1;durP1;ratioP1;P2;durP2;ratioP2
4432;SDS011;2229;48.708;9.706;2022-07-22T00:00:19;7.47;;;2.60;;
4432;SDS011;2229;48.708;9.706;2022-07-22T00:02:45;6.80;;;3.10;;
4432;SDS011;2229;48.708;9.706;2022-07-22T00:05:12;4.50;;;3.17;;
4432;SDS011;2229;48.708;9.706;2022-07-22T00:07:38;7.40;;;2.90;;
4432;SDS011;2229;48.708;9.706;2022-07-22T00:10:06;3.87;;;2.53;;
4432;SDS011;2229;48.708;9.706;2022-07-22T00:12:36;6.83;;;3.20;;
4432;SDS011;2229;48.708;9.706;2022-07-22T00:15:03;7.70;;;4.07;;
4432;SDS011;2229;48.708;9.706;2022-07-22T00:17:31;7.70;;;3.10;;
4432;SDS011;2229;48.708;9.706;2022-07-22T00:19:58;4.70;;;2.80;;
4432;SDS011;2229;48.708;9.706;2022-07-22T00:22:25;4.83;;;2.93;;
4432;SDS011;2229;48.708;9.706;2022-07-22T00:24:51;3.47;;;2.47;;
4432;SDS011;2229;48.708;9.706;2022-07-22T00:27:18;6.43;;;3.80;;
4432;SDS011;2229;48.708;9.706;2022-07-22T00:29:45;4.30;;;2.53;;
4432;SDS011;2229;48.708;9.706;2022-07-22T00:32:11;5.00;;;3.40;;
4432;SDS011;2229;48.708;9.706;2022-07-22T00:34:38;5.10;;;3.23;;
4432;SDS011;2229;48.708;9.706;2022-07-22T00:37:05;4.53;;;3.00;;
4432;SDS011;2229;48.708;9.706;2022-07-22T00:39:32;3.07;;;2.17;;
4432;SDS011;2229;48.708;9.706;2022-07-22T00:41:58;4.90;;;3.00;;
4432;SDS011;2229;48.708;9.706;2022-07-22T00:44:25;5.70;;;3.30;;
4432;SDS011;2229;48.708;9.706;2022-07-22T00:46:52;5.00;;;3.43;;
4432;SDS011;2229;48.708;9.706;2022-07-22T00:49:19;4.10;;;2.70;;
4432;SDS011;2229;48.708;9.706;2022-07-22T00:51:46;5.83;;;2.57;;
4432;SDS011;2229;48.708;9.706;2022-07-22T00:54:13;4.27;;;3.17;;
4432;SDS011;2229;48.708;9.706;2022-07-22T00:56:40;4.93;;;2.40;;
4432;SDS011;2229;48.708;9.706;2022-07-22T00:59:09;6.13;;;3.20;;
4432;SDS011;2229;48.708;9.706;2022-07-22T01:01:37;8.37;;;3.27;;
4432;SDS011;2229;48.708;9.706;2022-07-22T01:04:04;3.50;;;2.27;;
4432;SDS011;2229;48.708;9.706;2022-07-22T01:06:30;7.53;;;3.60;;
4432;SDS011;2229;48.708;9.706;2022-07-22T01:09:04;5.93;;;3.50;;
4432;SDS011;2229;48.708;9.706;2022-07-22T01:11:30;5.03;;;2.43;;
4432;SDS011;2229;48.708;9.706;2022-07-22T01:13:57;2.43;;;2.13;;
4432;SDS011;2229;48.708;9.706;2022-07-22T01:16:24;4.63;;;2.87;;
4432;SDS011;2229;48.708;9.706;2022-07-22T01:18:51;3.77;;;2.70;;
4432;SDS011;2229;48.708;9.706;2022-07-22T01:21:18;8.33;;;4.07;;
4432;SDS011;2229;48.708;9.706;2022-07-22T01:23:45;5.90;;;3.60;;
4432;SDS011;2229;48.708;9.706;2022-07-22T01:26:12;5.77;;;3.57;;
4432;SDS011;2229;48.708;9.706;2022-07-22T01:28:39;3.73;;;2.93;;
4432;SDS011;2229;48.708;9.706;2022-07-22T01:31:06;6.77;;;3.50;;
4432;SDS011;2229;48.708;9.706;2022-07-22T01:33:33;6.80;;;3.33;;
4432;SDS011;2229;48.708;9.706;2022-07-22T01:36:00;5.90;;;3.70;;
4432;SDS011;2229;48.708;9.706;2022-07-22T01:38:28;5.23;;;3.50;;
4432;SDS011;2229;48.708;9.706;2022-07-22T01:40:55;5.87;;;3.70;;
4432;SDS011;2229;48.708;9.706;2022-07-22T01:43:22;6.67;;;3.60;;
4432;SDS011;2229;48.708;9.706;2022-07-22T01:45:49;4.43;;;2.67;;
4432;SDS011;2229;48.708;9.706;2022-07-22T01:48:18;4.63;;;3.17;;
4432;SDS011;2229;48.708;9.706;2022-07-22T01:50:45;5.07;;;3.10;;
4432;SDS011;2229;48.708;9.706;2022-07-22T01:53:12;4.50;;;2.80;;
4432;SDS011;2229;48.708;9.706;2022-07-22T01:55:39;5.10;;;3.23;;
4432;SDS011;2229;48.708;9.706;2022-07-22T01:58:06;6.70;;;2.83;;
4432;SDS011;2229;48.708;9.706;2022-07-22T02:00:34;4.40;;;2.40;;
4432;SDS011;2229;48.708;9.706;2022-07-22T02:03:03;5.10;;;3.10;;
4432;SDS011;2229;48.708;9.706;2022-07-22T02:05:31;6.23;;;3.17;;
4432;SDS011;2229;48.708;9.706;2022-07-22T02:08:05;9.50;;;3.97;;
4432;SDS011;2229;48.708;9.706;2022-07-22T02:10:56;5.00;;;2.70;;
4432;SDS011;2229;48.708;9.706;2022-07-22T02:13:23;5.13;;;2.50;;
4432;SDS011;2229;48.708;9.706;2022-07-22T02:15:49;3.53;;;2.70;;
4432;SDS011;2229;48.708;9.706;2022-07-22T02:18:17;7.40;;;3.40;;
4432;SDS011;2229;48.708;9.706;2022-07-22T02:20:44;3.40;;;2.50;;
4432;SDS011;2229;48.708;9.706;2022-07-22T02:23:15;13.03;;;3.10;;
4432;SDS011;2229;48.708;9.706;2022-07-22T02:25:42;5.63;;;3.13;;
4432;SDS011;2229;48.708;9.706;2022-07-22T02:28:10;4.20;;;2.77;;
4432;SDS011;2229;48.708;9.706;2022-07-22T02:30:37;7.03;;;3.40;;
4432;SDS011;2229;48.708;9.706;2022-07-22T02:33:04;5.87;;;3.67;;
4432;SDS011;2229;48.708;9.706;2022-07-22T02:35:31;5.87;;;3.80;;
4432;SDS011;2229;48.708;9.706;2022-07-22T02:37:57;4.70;;;3.60;;
4432;SDS011;2229;48.708;9.706;2022-07-22T02:40:24;5.13;;;2.87;;
4432;SDS011;2229;48.708;9.706;2022-07-22T02:42:51;6.33;;;3.00;;
4432;SDS011;2229;48.708;9.706;2022-07-22T02:45:18;6.23;;;3.10;;
4432;SDS011;2229;48.708;9.706;2022-07-22T02:47:46;6.40;;;3.83;;
4432;SDS011;2229;48.708;9.706;2022-07-22T02:50:14;4.47;;;2.83;;
4432;SDS011;2229;48.708;9.706;2022-07-22T02:52:40;4.43;;;2.93;;
4432;SDS011;2229;48.708;9.706;2022-07-22T02:55:08;4.37;;;2.73;;
4432;SDS011;2229;48.708;9.706;2022-07-22T02:57:35;5.53;;;3.50;;
4432;SDS011;2229;48.708;9.706;2022-07-22T03:00:02;5.40;;;3.17;;
4432;SDS011;2229;48.708;9.706;2022-07-22T03:02:33;6.17;;;3.13;;
4432;SDS011;2229;48.708;9.706;2022-07-22T03:05:00;5.90;;;3.30;;
4432;SDS011;2229;48.708;9.706;2022-07-22T03:07:27;6.70;;;3.40;;
4432;SDS011;2229;48.708;9.706;2022-07-22T03:09:54;4.77;;;2.70;;
4432;SDS011;2229;48.708;9.706;2022-07-22T03:12:20;3.77;;;2.27;;
4432;SDS011;2229;48.708;9.706;2022-07-22T03:14:47;4.70;;;2.53;;
4432;SDS011;2229;48.708;9.706;2022-07-22T03:17:14;5.80;;;3.33;;
4432;SDS011;2229;48.708;9.706;2022-07-22T03:19:41;9.17;;;3.13;;
4432;SDS011;2229;48.708;9.706;2022-07-22T03:22:08;8.60;;;3.43;;
4432;SDS011;2229;48.708;9.706;2022-07-22T03:24:35;5.90;;;3.43;;
4432;SDS011;2229;48.708;9.706;2022-07-22T03:27:02;5.73;;;3.93;;
4432;SDS011;2229;48.708;9.706;2022-07-22T03:29:30;5.03;;;2.90;;
4432;SDS011;2229;48.708;9.706;2022-07-22T03:32:03;4.03;;;2.87;;
4432;SDS011;2229;48.708;9.706;2022-07-22T03:34:48;4.57;;;3.43;;
4432;SDS011;2229;48.708;9.706;2022-07-22T03:37:16;4.80;;;3.43;;
4432;SDS011;2229;48.708;9.706;2022-07-22T03:39:43;5.10;;;3.47;;
4432;SDS011;2229;48.708;9.706;2022-07-22T03:42:10;5.00;;;2.80;;
4432;SDS011;2229;48.708;9.706;2022-07-22T03:44:44;5.53;;;2.73;;
4432;SDS011;2229;48.708;9.706;2022-07-22T03:47:12;7.07;;;3.57;;
4432;SDS011;2229;48.708;9.706;2022-07-22T03:49:42;5.20;;;3.00;;
4432;SDS011;2229;48.708;9.706;2022-07-22T03:52:12;6.43;;;2.63;;
4432;SDS011;2229;48.708;9.706;2022-07-22T03:54:39;4.90;;;2.47;;
4432;SDS011;2229;48.708;9.706;2022-07-22T03:57:06;6.07;;;3.27;;
4432;SDS011;2229;48.708;9.706;2022-07-22T03:59:33;4.30;;;2.47;;
4432;SDS011;2229;48.708;9.706;2022-07-22T04:02:04;6.07;;;2.90;;
4432;SDS011;2229;48.708;9.706;2022-07-22T04:04:31;6.13;;;2.70;;
4432;SDS011;2229;48.708;9.706;2022-07-22T04:06:58;4.53;;;2.63;;
4432;SDS011;2229;48.708;9.706;2022-07-22T04:09:32;4.23;;;3.50;;
4432;SDS011;2229;48.708;9.706;2022-07-22T04:11:58;6.33;;;3.70;;
4432;SDS011;2229;48.708;9.706;2022-07-22T04:14:26;13.90;;;3.10;;
4432;SDS011;2229;48.708;9.706;2022-07-22T04:16:56;3.70;;;2.30;;
4432;SDS011;2229;48.708;9.706;2022-07-22T04:19:22;5.53;;;3.60;;
4432;SDS011;2229;48.708;9.706;2022-07-22T04:21:57;8.37;;;3.77;;
4432;SDS011;2229;48.708;9.706;2022-07-22T04:24:27;5.33;;;3.07;;
4432;SDS011;2229;48.708;9.706;2022-07-22T04:26:55;5.07;;;3.10;;
4432;SDS011;2229;48.708;9.706;2022-07-22T04:29:23;4.17;;;2.80;;
4432;SDS011;2229;48.708;9.706;2022-07-22T04:31:49;5.33;;;3.87;;
4432;SDS011;2229;48.708;9.706;2022-07-22T04:34:18;6.00;;;3.20;;
4432;SDS011;2229;48.708;9.706;2022-07-22T04:36:47;4.57;;;3.00;;
4432;SDS011;2229;48.708;9.706;2022-07-22T04:39:13;6.97;;;4.80;;
4432;SDS011;2229;48.708;9.706;2022-07-22T04:41:46;9.33;;;4.30;;
4432;SDS011;2229;48.708;9.706;2022-07-22T04:44:16;5.03;;;3.37;;
4432;SDS011;2229;48.708;9.706;2022-07-22T04:46:43;6.63;;;4.43;;
4432;SDS011;2229;48.708;9.706;2022-07-22T04:49:09;5.13;;;3.40;;
4432;SDS011;2229;48.708;9.706;2022-07-22T04:51:36;5.07;;;3.17;;
4432;SDS011;2229;48.708;9.706;2022-07-22T04:54:05;5.80;;;3.33;;
4432;SDS011;2229;48.708;9.706;2022-07-22T04:56:35;4.50;;;2.67;;
4432;SDS011;2229;48.708;9.706;2022-07-22T04:59:02;4.20;;;2.67;;
4432;SDS011;2229;48.708;9.706;2022-07-22T05:01:31;10.90;;;3.67;;
4432;SDS011;2229;48.708;9.706;2022-07-22T05:04:00;2.97;;;2.20;;
4432;SDS011;2229;48.708;9.706;2022-07-22T05:06:26;8.83;;;3.07;;
4432;SDS011;2229;48.708;9.706;2022-07-22T05:08:54;5.67;;;2.90;;
4432;SDS011;2229;48.708;9.706;2022-07-22T05:11:20;5.80;;;3.50;;
4432;SDS011;2229;48.708;9.706;2022-07-22T05:13:47;4.10;;;3.20;;
4432;SDS011;2229;48.708;9.706;2022-07-22T05:16:14;5.80;;;3.00;;
4432;SDS011;2229;48.708;9.706;2022-07-22T05:18:41;6.10;;;3.90;;
4432;SDS011;2229;48.708;9.706;2022-07-22T05:21:12;6.10;;;4.00;;
4432;SDS011;2229;48.708;9.706;2022-07-22T05:23:39;9.43;;;4.93;;
4432;SDS011;2229;48.708;9.706;2022-07-22T05:26:06;6.27;;;3.73;;
4432;SDS011;2229;48.708;9.706;2022-07-22T05:28:32;7.17;;;4.27;;
4432;SDS011;2229;48.708;9.706;2022-07-22T05:31:00;6.57;;;4.10;;
4432;SDS011;2229;48.708;9.706;2022-07-22T05:33:27;4.87;;;2.90;;
4432;SDS011;2229;48.708;9.706;2022-07-22T05:36:02;5.20;;;3.60;;
4432;SDS011;2229;48.708;9.706;2022-07-22T05:38:45;6.37;;;3.57;;
4432;SDS011;2229;48.708;9.706;2022-07-22T05:41:11;5.50;;;3.50;;
4432;SDS011;2229;48.708;9.706;2022-07-22T05:43:38;4.23;;;2.93;;
4432;SDS011;2229;48.708;9.706;2022-07-22T05:46:05;5.23;;;3.30;;
4432;SDS011;2229;48.708;9.706;2022-07-22T05:48:32;7.53;;;3.93;;
4432;SDS011;2229;48.708;9.706;2022-07-22T05:51:00;4.93;;;3.30;;
4432;SDS011;2229;48.708;9.706;2022-07-22T05:53:30;4.67;;;2.90;;
4432;SDS011;2229;48.708;9.706;2022-07-22T05:55:57;9.60;;;3.57;;
4432;SDS011;2229;48.708;9.706;2022-07-22T05:58:24;9.80;;;3.90;;
4432;SDS011;2229;48.708;9.706;2022-07-22T06:00:51;4.20;;;3.30;;
4432;SDS011;2229;48.708;9.706;2022-07-22T06:03:18;6.03;;;3.60;;
4432;SDS011;2229;48.708;9.706;2022-07-22T06:05:45;4.07;;;2.33;;
4432;SDS011;2229;48.708;9.706;2022-07-22T06:08:11;6.83;;;2.57;;
4432;SDS011;2229;48.708;9.706;2022-07-22T06:10:50;3.47;;;2.40;;
4432;SDS011;2229;48.708;9.706;2022-07-22T06:13:18;5.60;;;2.63;;
4432;SDS011;2229;48.708;9.706;2022-07-22T06:15:45;4.43;;;2.60;;
4432;SDS011;2229;48.708;9.706;2022-07-22T06:18:12;5.67;;;3.67;;
4432;SDS011;2229;48.708;9.706;2022-07-22T06:20:38;3.63;;;2.03;;
4432;SDS011;2229;48.708;9.706;2022-07-22T06:23:05;4.07;;;2.73;;
4432;SDS011;2229;48.708;9.706;2022-07-22T06:25:33;3.13;;;2.30;;
4432;SDS011;2229;48.708;9.706;2022-07-22T06:28:07;4.57;;;3.17;;
4432;SDS011;2229;48.708;9.706;2022-07-22T06:30:34;5.43;;;2.70;;
4432;SDS011;2229;48.708;9.706;2022-07-22T06:33:00;4.40;;;2.40;;
4432;SDS011;2229;48.708;9.706;2022-07-22T06:35:27;4.53;;;2.63;;
4432;SDS011;2229;48.708;9.706;2022-07-22T06:37:54;4.30;;;2.60;;
4432;SDS011;2229;48.708;9.706;2022-07-22T06:40:22;4.60;;;3.17;;
4432;SDS011;2229;48.708;9.706;2022-07-22T06:43:22;4.67;;;2.80;;
4432;SDS011;2229;48.708;9.706;2022-07-22T06:46:28;2.90;;;2.07;;
4432;SDS011;2229;48.708;9.706;2022-07-22T06:48:55;4.40;;;2.37;;
4432;SDS011;2229;48.708;9.706;2022-07-22T06:51:22;4.67;;;2.43;;
4432;SDS011;2229;48.708;9.706;2022-07-22T06:53:49;5.17;;;2.87;;
4432;SDS011;2229;48.708;9.706;2022-07-22T06:56:16;4.40;;;2.67;;
4432;SDS011;2229;48.708;9.706;2022-07-22T06:58:44;5.20;;;2.20;;
4432;SDS011;2229;48.708;9.706;2022-07-22T07:01:11;3.80;;;2.70;;
4432;SDS011;2229;48.708;9.706;2022-07-22T07:03:54;6.03;;;2.90;;
4432;SDS011;2229;48.708;9.706;2022-07-22T07:06:21;3.40;;;2.27;;
4432;SDS011;2229;48.708;9.706;2022-07-22T07:08:58;3.47;;;2.33;;
4432;SDS011;2229;48.708;9.706;2022-07-22T07:11:24;3.50;;;2.30;;
4432;SDS011;2229;48.708;9.706;2022-07-22T07:13:52;6.07;;;3.33;;
4432;SDS011;2229;48.708;9.706;2022-07-22T07:16:18;3.00;;;2.07;;
4432;SDS011;2229;48.708;9.706;2022-07-22T07:18:46;4.20;;;2.77;;
4432;SDS011;2229;48.708;9.706;2022-07-22T07:21:13;3.87;;;2.60;;
4432;SDS011;2229;48.708;9.706;2022-07-22T07:23:40;5.40;;;2.70;;
4432;SDS011;2229;48.708;9.706;2022-07-22T07:26:06;3.00;;;2.10;;
4432;SDS011;2229;48.708;9.706;2022-07-22T07:28:33;3.13;;;2.10;;
4432;SDS011;2229;48.708;9.706;2022-07-22T07:31:14;3.70;;;2.57;;
4432;SDS011;2229;48.708;9.706;2022-07-22T07:33:42;4.10;;;3.13;;
4432;SDS011;2229;48.708;9.706;2022-07-22T07:36:10;4.03;;;2.30;;
4432;SDS011;2229;48.708;9.706;2022-07-22T07:38:42;3.73;;;2.60;;
4432;SDS011;2229;48.708;9.706;2022-07-22T07:41:13;3.83;;;2.17;;
4432;SDS011;2229;48.708;9.706;2022-07-22T07:43:41;2.73;;;2.03;;
4432;SDS011;2229;48.708;9.706;2022-07-22T07:46:08;3.53;;;2.20;;
4432;SDS011;2229;48.708;9.706;2022-07-22T07:48:36;2.73;;;1.70;;
4432;SDS011;2229;48.708;9.706;2022-07-22T07:51:03;4.03;;;2.23;;
4432;SDS011;2229;48.708;9.706;2022-07-22T07:53:31;2.67;;;1.90;;
4432;SDS011;2229;48.708;9.706;2022-07-22T07:55:58;2.70;;;1.47;;
4432;SDS011;2229;48.708;9.706;2022-07-22T07:58:24;2.50;;;1.83;;
4432;SDS011;2229;48.708;9.706;2022-07-22T08:00:51;2.50;;;1.50;;
4432;SDS011;2229;48.708;9.706;2022-07-22T08:03:19;3.53;;;1.87;;
4432;SDS011;2229;48.708;9.706;2022-07-22T08:05:47;3.67;;;2.57;;
4432;SDS011;2229;48.708;9.706;2022-07-22T08:08:19;3.43;;;2.17;;
4432;SDS011;2229;48.708;9.706;2022-07-22T08:10:48;7.83;;;3.00;;
4432;SDS011;2229;48.708;9.706;2022-07-22T08:13:36;4.47;;;3.00;;
4432;SDS011;2229;48.708;9.706;2022-07-22T08:16:03;4.43;;;2.33;;
4432;SDS011;2229;48.708;9.706;2022-07-22T08:18:32;4.30;;;2.00;;
4432;SDS011;2229;48.708;9.706;2022-07-22T08:20:59;5.93;;;2.53;;
4432;SDS011;2229;48.708;9.706;2022-07-22T08:23:52;4.43;;;2.80;;
4432;SDS011;2229;48.708;9.706;2022-07-22T08:26:18;3.57;;;2.50;;
4432;SDS011;2229;48.708;9.706;2022-07-22T08:28:46;6.57;;;2.90;;
4432;SDS011;2229;48.708;9.706;2022-07-22T08:31:12;4.80;;;2.77;;
4432;SDS011;2229;48.708;9.706;2022-07-22T08:33:39;3.40;;;2.37;;
4432;SDS011;2229;48.708;9.706;2022-07-22T08:36:08;4.80;;;2.80;;
4432;SDS011;2229;48.708;9.706;2022-07-22T08:38:34;3.10;;;2.00;;
4432;SDS011;2229;48.708;9.706;2022-07-22T08:41:04;3.10;;;2.47;;
4432;SDS011;2229;48.708;9.706;2022-07-22T08:43:34;5.90;;;2.53;;
4432;SDS011;2229;48.708;9.706;2022-07-22T08:46:02;4.70;;;2.33;;
4432;SDS011;2229;48.708;9.706;2022-07-22T08:48:35;4.60;;;2.70;;
4432;SDS011;2229;48.708;9.706;2022-07-22T08:51:22;3.20;;;2.50;;
4432;SDS011;2229;48.708;9.706;2022-07-22T08:54:07;3.83;;;2.37;;
4432;SDS011;2229;48.708;9.706;2022-07-22T08:56:34;3.43;;;2.33;;
4432;SDS011;2229;48.708;9.706;2022-07-22T08:59:03;4.20;;;2.80;;
4432;SDS011;2229;48.708;9.706;2022-07-22T09:01:30;3.93;;;1.97;;
4432;SDS011;2229;48.708;9.706;2022-07-22T09:03:57;3.70;;;2.60;;
4432;SDS011;2229;48.708;9.706;2022-07-22T09:06:30;3.27;;;2.43;;
4432;SDS011;2229;48.708;9.706;2022-07-22T09:08:59;3.50;;;2.13;;
4432;SDS011;2229;48.708;9.706;2022-07-22T09:12:06;3.10;;;1.90;;
4432;SDS011;2229;48.708;9.706;2022-07-22T09:14:49;3.47;;;2.47;;
4432;SDS011;2229;48.708;9.706;2022-07-22T09:17:49;4.53;;;2.33;;
4432;SDS011;2229;48.708;9.706;2022-07-22T09:20:38;2.60;;;1.90;;
4432;SDS011;2229;48.708;9.706;2022-07-22T09:23:39;2.93;;;2.10;;
4432;SDS011;2229;48.708;9.706;2022-07-22T09:26:06;4.63;;;2.40;;
4432;SDS011;2229;48.708;9.706;2022-07-22T09:29:11;3.60;;;2.37;;
4432;SDS011;2229;48.708;9.706;2022-07-22T09:32:02;3.73;;;1.90;;
4432;SDS011;2229;48.708;9.706;2022-07-22T09:34:40;2.57;;;2.20;;
4432;SDS011;2229;48.708;9.706;2022-07-22T09:37:15;3.83;;;2.23;;
4432;SDS011;2229;48.708;9.706;2022-07-22T09:39:43;3.93;;;2.07;;
4432;SDS011;2229;48.708;9.706;2022-07-22T09:42:11;4.03;;;2.47;;
4432;SDS011;2229;48.708;9.706;2022-07-22T09:44:41;4.00;;;2.87;;
4432;SDS011;2229;48.708;9.706;2022-07-22T09:47:26;5.10;;;2.53;;
4432;SDS011;2229;48.708;9.706;2022-07-22T09:50:14;2.70;;;1.90;;
4432;SDS011;2229;48.708;9.706;2022-07-22T09:53:02;2.63;;;1.83;;
4432;SDS011;2229;48.708;9.706;2022-07-22T09:55:30;2.20;;;1.90;;
4432;SDS011;2229;48.708;9.706;2022-07-22T09:57:59;2.73;;;2.07;;
4432;SDS011;2229;48.708;9.706;2022-07-22T10:00:26;13.93;;;1.60;;
4432;SDS011;2229;48.708;9.706;2022-07-22T10:02:57;3.93;;;1.77;;
4432;SDS011;2229;48.708;9.706;2022-07-22T10:05:30;3.93;;;2.10;;
4432;SDS011;2229;48.708;9.706;2022-07-22T10:07:59;4.93;;;2.10;;
4432;SDS011;2229;48.708;9.706;2022-07-22T10:10:28;3.03;;;1.90;;
4432;SDS011;2229;48.708;9.706;2022-07-22T10:12:57;2.47;;;1.93;;
4432;SDS011;2229;48.708;9.706;2022-07-22T10:15:28;4.90;;;2.00;;
4432;SDS011;2229;48.708;9.706;2022-07-22T10:17:57;2.70;;;1.47;;
4432;SDS011;2229;48.708;9.706;2022-07-22T10:20:28;3.50;;;2.17;;
4432;SDS011;2229;48.708;9.706;2022-07-22T10:22:56;3.47;;;1.80;;
4432;SDS011;2229;48.708;9.706;2022-07-22T10:25:24;2.30;;;1.87;;
4432;SDS011;2229;48.708;9.706;2022-07-22T10:27:53;7.43;;;2.93;;
4432;SDS011;2229;48.708;9.706;2022-07-22T10:30:23;3.83;;;2.43;;
4432;SDS011;2229;48.708;9.706;2022-07-22T10:33:07;5.53;;;1.90;;
4432;SDS011;2229;48.708;9.706;2022-07-22T10:35:35;2.70;;;1.33;;
4432;SDS011;2229;48.708;9.706;2022-07-22T10:38:05;3.27;;;2.17;;
4432;SDS011;2229;48.708;9.706;2022-07-22T10:40:47;3.23;;;2.70;;
4432;SDS011;2229;48.708;9.706;2022-07-22T10:43:15;2.70;;;1.87;;
4432;SDS011;2229;48.708;9.706;2022-07-22T10:45:45;2.93;;;1.50;;
4432;SDS011;2229;48.708;9.706;2022-07-22T10:48:13;1.40;;;1.20;;
4432;SDS011;2229;48.708;9.706;2022-07-22T10:50:43;2.50;;;1.87;;
4432;SDS011;2229;48.708;9.706;2022-07-22T10:53:13;5.17;;;2.40;;
4432;SDS011;2229;48.708;9.706;2022-07-22T10:58:44;1.80;;;1.30;;
4432;SDS011;2229;48.708;9.706;2022-07-22T11:01:20;2.20;;;1.53;;
4432;SDS011;2229;48.708;9.706;2022-07-22T11:03:48;5.93;;;2.20;;
4432;SDS011;2229;48.708;9.706;2022-07-22T11:06:16;2.53;;;1.67;;
4432;SDS011;2229;48.708;9.706;2022-07-22T11:08:46;3.17;;;1.43;;
4432;SDS011;2229;48.708;9.706;2022-07-22T11:11:14;3.20;;;1.93;;
4432;SDS011;2229;48.708;9.706;2022-07-22T11:13:41;1.70;;;1.20;;
4432;SDS011;2229;48.708;9.706;2022-07-22T11:16:13;2.17;;;1.47;;
4432;SDS011;2229;48.708;9.706;2022-07-22T11:18:45;2.47;;;1.40;;
4432;SDS011;2229;48.708;9.706;2022-07-22T11:21:13;2.23;;;1.50;;
4432;SDS011;2229;48.708;9.706;2022-07-22T11:23:41;2.23;;;1.07;;
4432;SDS011;2229;48.708;9.706;2022-07-22T11:26:09;2.67;;;1.90;;
4432;SDS011;2229;48.708;9.706;2022-07-22T11:28:39;1.63;;;1.10;;
4432;SDS011;2229;48.708;9.706;2022-07-22T11:31:06;4.77;;;1.03;;
4432;SDS011;2229;48.708;9.706;2022-07-22T11:33:33;2.17;;;1.20;;
4432;SDS011;2229;48.708;9.706;2022-07-22T11:36:01;2.97;;;0.93;;
4432;SDS011;2229;48.708;9.706;2022-07-22T11:38:39;1.40;;;0.90;;
4432;SDS011;2229;48.708;9.706;2022-07-22T11:41:12;1.67;;;1.17;;
4432;SDS011;2229;48.708;9.706;2022-07-22T11:43:42;1.63;;;0.87;;
4432;SDS011;2229;48.708;9.706;2022-07-22T11:46:09;2.10;;;1.53;;
4432;SDS011;2229;48.708;9.706;2022-07-22T11:48:36;1.33;;;0.97;;
4432;SDS011;2229;48.708;9.706;2022-07-22T11:51:06;1.97;;;1.13;;
4432;SDS011;2229;48.708;9.706;2022-07-22T11:53:35;2.47;;;1.43;;
4432;SDS011;2229;48.708;9.706;2022-07-22T11:56:03;2.50;;;1.90;;
4432;SDS011;2229;48.708;9.706;2022-07-22T11:58:39;1.97;;;1.77;;
4432;SDS011;2229;48.708;9.706;2022-07-22T12:01:09;2.10;;;1.70;;
4432;SDS011;2229;48.708;9.706;2022-07-22T12:03:39;5.20;;;2.37;;
4432;SDS011;2229;48.708;9.706;2022-07-22T12:06:09;3.00;;;1.67;;
4432;SDS011;2229;48.708;9.706;2022-07-22T12:08:41;2.50;;;1.77;;
4432;SDS011;2229;48.708;9.706;2022-07-22T12:11:10;3.60;;;1.87;;
4432;SDS011;2229;48.708;9.706;2022-07-22T12:13:40;5.00;;;1.50;;
4432;SDS011;2229;48.708;9.706;2022-07-22T12:16:18;2.50;;;1.40;;
4432;SDS011;2229;48.708;9.706;2022-07-22T12:18:50;3.83;;;2.10;;
4432;SDS011;2229;48.708;9.706;2022-07-22T12:21:18;2.60;;;1.40;;
4432;SDS011;2229;48.708;9.706;2022-07-22T12:23:50;3.87;;;1.90;;
4432;SDS011;2229;48.708;9.706;2022-07-22T12:26:18;2.23;;;1.60;;
4432;SDS011;2229;48.708;9.706;2022-07-22T12:28:45;1.73;;;1.27;;
4432;SDS011;2229;48.708;9.706;2022-07-22T12:31:11;2.00;;;1.53;;
4432;SDS011;2229;48.708;9.706;2022-07-22T12:33:46;1.67;;;1.20;;
4432;SDS011;2229;48.708;9.706;2022-07-22T12:36:13;2.17;;;1.43;;
4432;SDS011;2229;48.708;9.706;2022-07-22T12:38:41;3.20;;;1.83;;
4432;SDS011;2229;48.708;9.706;2022-07-22T12:41:23;2.90;;;1.70;;
4432;SDS011;2229;48.708;9.706;2022-07-22T12:43:51;6.17;;;1.97;;
4432;SDS011;2229;48.708;9.706;2022-07-22T12:46:18;3.20;;;1.80;;
4432;SDS011;2229;48.708;9.706;2022-07-22T12:48:48;4.53;;;2.67;;
4432;SDS011;2229;48.708;9.706;2022-07-22T12:51:17;4.83;;;2.07;;
4432;SDS011;2229;48.708;9.706;2022-07-22T12:53:44;3.87;;;2.83;;
4432;SDS011;2229;48.708;9.706;2022-07-22T12:56:11;3.10;;;1.53;;
4432;SDS011;2229;48.708;9.706;2022-07-22T12:58:37;2.13;;;1.70;;
4432;SDS011;2229;48.708;9.706;2022-07-22T13:01:06;2.90;;;1.40;;
4432;SDS011;2229;48.708;9.706;2022-07-22T13:03:33;3.20;;;1.73;;
4432;SDS011;2229;48.708;9.706;2022-07-22T13:06:01;3.60;;;1.50;;
4432;SDS011;2229;48.708;9.706;2022-07-22T13:08:29;2.50;;;1.70;;
4432;SDS011;2229;48.708;9.706;2022-07-22T13:10:57;2.83;;;2.10;;
4432;SDS011;2229;48.708;9.706;2022-07-22T13:13:24;2.33;;;1.60;;
4432;SDS011;2229;48.708;9.706;2022-07-22T13:15:50;2.93;;;1.70;;
4432;SDS011;2229;48.708;9.706;2022-07-22T13:18:17;5.03;;;2.43;;
4432;SDS011;2229;48.708;9.706;2022-07-22T13:20:44;1.83;;;1.00;;
4432;SDS011;2229;48.708;9.706;2022-07-22T13:23:12;2.97;;;1.40;;
4432;SDS011;2229;48.708;9.706;2022-07-22T13:25:38;2.70;;;1.80;;
4432;SDS011;2229;48.708;9.706;2022-07-22T13:28:05;2.37;;;1.73;;
4432;SDS011;2229;48.708;9.706;2022-07-22T13:30:32;2.50;;;1.97;;
4432;SDS011;2229;48.708;9.706;2022-07-22T13:32:58;2.67;;;1.43;;
4432;SDS011;2229;48.708;9.706;2022-07-22T13:35:25;3.10;;;1.70;;
4432;SDS011;2229;48.708;9.706;2022-07-22T13:37:52;5.43;;;1.60;;
4432;SDS011;2229;48.708;9.706;2022-07-22T13:40:18;3.23;;;1.83;;
4432;SDS011;2229;48.708;9.706;2022-07-22T13:42:45;2.60;;;1.73;;
4432;SDS011;2229;48.708;9.706;2022-07-22T13:45:12;2.40;;;1.83;;
4432;SDS011;2229;48.708;9.706;2022-07-22T13:47:40;2.83;;;1.90;;
4432;SDS011;2229;48.708;9.706;2022-07-22T13:50:07;2.60;;;1.63;;
4432;SDS011;2229;48.708;9.706;2022-07-22T13:52:34;1.97;;;1.33;;
4432;SDS011;2229;48.708;9.706;2022-07-22T13:55:01;2.13;;;1.10;;
4432;SDS011;2229;48.708;9.706;2022-07-22T13:57:27;6.60;;;2.07;;
4432;SDS011;2229;48.708;9.706;2022-07-22T13:59:54;2.83;;;1.50;;
4432;SDS011;2229;48.708;9.706;2022-07-22T14:02:22;2.77;;;1.63;;
4432;SDS011;2229;48.708;9.706;2022-07-22T14:04:49;1.60;;;1.13;;
4432;SDS011;2229;48.708;9.706;2022-07-22T14:07:15;3.17;;;1.77;;
4432;SDS011;2229;48.708;9.706;2022-07-22T14:09:42;1.90;;;1.00;;
4432;SDS011;2229;48.708;9.706;2022-07-22T14:12:08;2.73;;;1.33;;
4432;SDS011;2229;48.708;9.706;2022-07-22T14:14:35;1.40;;;1.10;;
4432;SDS011;2229;48.708;9.706;2022-07-22T14:17:04;2.33;;;1.27;;
4432;SDS011;2229;48.708;9.706;2022-07-22T14:19:31;1.50;;;1.20;;
4432;SDS011;2229;48.708;9.706;2022-07-22T14:21:58;2.03;;;1.43;;
4432;SDS011;2229;48.708;9.706;2022-07-22T14:24:24;2.27;;;1.63;;
4432;SDS011;2229;48.708;9.706;2022-07-22T14:26:51;2.83;;;1.90;;
4432;SDS011;2229;48.708;9.706;2022-07-22T14:29:18;2.50;;;1.27;;
4432;SDS011;2229;48.708;9.706;2022-07-22T14:31:46;2.03;;;1.10;;
4432;SDS011;2229;48.708;9.706;2022-07-22T14:34:13;2.50;;;1.63;;
4432;SDS011;2229;48.708;9.706;2022-07-22T14:36:40;2.17;;;1.10;;
4432;SDS011;2229;48.708;9.706;2022-07-22T14:39:17;4.40;;;2.03;;
4432;SDS011;2229;48.708;9.706;2022-07-22T14:41:43;1.80;;;1.30;;
4432;SDS011;2229;48.708;9.706;2022-07-22T14:44:11;2.20;;;1.37;;
4432;SDS011;2229;48.708;9.706;2022-07-22T14:46:38;2.50;;;1.60;;
4432;SDS011;2229;48.708;9.706;2022-07-22T14:49:05;4.03;;;2.00;;
4432;SDS011;2229;48.708;9.706;2022-07-22T14:51:32;2.03;;;1.43;;
4432;SDS011;2229;48.708;9.706;2022-07-22T14:53:59;2.77;;;1.83;;
4432;SDS011;2229;48.708;9.706;2022-07-22T14:56:26;2.10;;;1.47;;
4432;SDS011;2229;48.708;9.706;2022-07-22T14:58:52;4.30;;;1.80;;
4432;SDS011;2229;48.708;9.706;2022-07-22T15:01:19;1.60;;;1.37;;
4432;SDS011;2229;48.708;9.706;2022-07-22T15:03:45;1.90;;;1.57;;
4432;SDS011;2229;48.708;9.706;2022-07-22T15:06:12;4.63;;;1.70;;
4432;SDS011;2229;48.708;9.706;2022-07-22T15:08:38;2.27;;;1.10;;
4432;SDS011;2229;48.708;9.706;2022-07-22T15:11:06;2.37;;;1.60;;
4432;SDS011;2229;48.708;9.706;2022-07-22T15:13:32;2.50;;;1.30;;
4432;SDS011;2229;48.708;9.706;2022-07-22T15:15:59;1.80;;;1.23;;
4432;SDS011;2229;48.708;9.706;2022-07-22T15:18:26;2.03;;;1.43;;
4432;SDS011;2229;48.708;9.706;2022-07-22T15:20:52;2.17;;;1.30;;
4432;SDS011;2229;48.708;9.706;2022-07-22T15:23:19;2.10;;;1.27;;
4432;SDS011;2229;48.708;9.706;2022-07-22T15:25:47;1.87;;;1.00;;
4432;SDS011;2229;48.708;9.706;2022-07-22T15:28:14;2.80;;;1.33;;
4432;SDS011;2229;48.708;9.706;2022-07-22T15:30:40;1.97;;;1.27;;